X  Close Metar Aviation Weather Data     LBPD Plovdiv International Airport
Temperature
82°F Temperature
64°F Dewpoint
55% Humidity



Wind
3 MPH
5 KM/H
1 M/S
3 KTS



290°
WNW
Current Conditions

Clear Clear
Pressure 1011.85 (hPa) - 29.88 (inHg)
Visibility 6 (mile) - 9.7 (km)
Airport
Airport-code LBPD

Location: Plovdiv International Airport
Distance: 14 (mi)

Metar:
LBPD 200630Z AUTO 29003KT 210V360 9999 NCD 28/18 Q1012 NOSIG

Time: 20-07-2024 09:30 EEST